createdAt,value
2022-10-01T00:00:21.530Z,50.50
2022-10-01T00:01:21.632Z,50.70
2022-10-01T00:02:21.503Z,50.30
2022-10-01T00:03:21.608Z,50.50
2022-10-01T00:04:21.535Z,50.70
2022-10-01T00:05:21.511Z,50.70
2022-10-01T00:06:21.461Z,50.89
2022-10-01T00:07:21.460Z,51.09
2022-10-01T00:08:21.442Z,49.90
2022-10-01T00:09:21.442Z,47.71
2022-10-01T00:10:21.408Z,50.89
2022-10-01T00:11:21.381Z,51.69
2022-10-01T00:12:21.441Z,51.69
2022-10-01T00:13:21.372Z,51.09
2022-10-01T00:14:21.348Z,49.90
2022-10-01T00:15:21.322Z,51.49
2022-10-01T00:16:21.406Z,50.89
2022-10-01T00:17:21.313Z,50.70
2022-10-01T00:18:21.309Z,51.49
2022-10-01T00:19:21.303Z,50.70
2022-10-01T00:20:21.303Z,51.29
2022-10-01T00:21:21.302Z,51.69
2022-10-01T00:22:21.284Z,50.89
2022-10-01T00:23:21.281Z,51.09
2022-10-01T00:24:21.301Z,50.70
2022-10-01T00:25:21.230Z,51.09
2022-10-01T00:26:21.241Z,51.29
2022-10-01T00:27:21.221Z,50.89
2022-10-01T00:28:21.289Z,51.49
2022-10-01T00:29:21.210Z,50.50
2022-10-01T00:30:21.241Z,50.70
2022-10-01T00:31:21.303Z,51.69
2022-10-01T00:32:21.172Z,51.69
2022-10-01T00:33:21.171Z,51.29
2022-10-01T00:34:21.162Z,51.29
2022-10-01T00:35:21.178Z,51.29
2022-10-01T00:36:21.110Z,50.30
2022-10-01T00:37:21.090Z,51.49
2022-10-01T00:38:21.081Z,51.29
2022-10-01T00:39:21.132Z,50.70
2022-10-01T00:40:21.095Z,50.70
2022-10-01T00:41:21.080Z,50.70
2022-10-01T00:42:21.100Z,51.09
2022-10-01T00:43:21.047Z,51.69
2022-10-01T00:44:21.034Z,50.70
2022-10-01T00:45:21.026Z,50.70
2022-10-01T00:46:21.082Z,50.70
2022-10-01T00:47:21.003Z,50.89
2022-10-01T00:48:20.987Z,50.70
2022-10-01T00:49:20.962Z,48.51
2022-10-01T00:50:21.130Z,50.89
2022-10-01T00:51:20.970Z,50.89
2022-10-01T00:52:20.980Z,51.29
2022-10-01T00:53:20.951Z,51.09
2022-10-01T00:54:20.929Z,51.09
2022-10-01T00:55:20.920Z,50.89
2022-10-01T00:56:20.919Z,51.09
2022-10-01T00:57:20.881Z,50.89
2022-10-01T00:58:20.859Z,52.88
2022-10-01T00:59:20.874Z,50.30
2022-10-01T01:00:20.868Z,50.30
2022-10-01T01:01:20.916Z,51.09
2022-10-01T01:02:20.961Z,50.89
2022-10-01T01:03:20.816Z,50.30
2022-10-01T01:04:20.799Z,50.70
2022-10-01T01:05:20.799Z,51.49
2022-10-01T01:06:20.802Z,50.10
2022-10-01T01:07:20.799Z,50.89
2022-10-01T01:08:20.750Z,50.70
2022-10-01T01:09:20.805Z,51.49
2022-10-01T01:10:20.850Z,50.89
2022-10-01T01:11:20.689Z,50.89
2022-10-01T01:12:20.698Z,51.09
2022-10-01T01:13:20.715Z,50.70
2022-10-01T01:14:20.721Z,51.49
2022-10-01T01:15:20.688Z,50.50
2022-10-01T01:16:20.761Z,50.50
2022-10-01T01:17:20.680Z,50.89
2022-10-01T01:18:20.689Z,50.30
2022-10-01T01:19:20.651Z,50.50
2022-10-01T01:20:20.662Z,51.49
2022-10-01T01:21:20.620Z,49.70
2022-10-01T01:22:20.639Z,53.28
2022-10-01T01:23:20.588Z,51.49
2022-10-01T01:24:20.588Z,50.70
2022-10-01T01:25:20.613Z,51.49
2022-10-01T01:26:20.558Z,50.89
2022-10-01T01:27:20.548Z,50.70
2022-10-01T01:28:20.685Z,51.29
2022-10-01T01:29:20.573Z,50.70
2022-10-01T01:30:20.537Z,50.50
2022-10-01T01:31:20.557Z,51.09
2022-10-01T01:32:20.537Z,51.29
2022-10-01T01:33:20.528Z,52.09
2022-10-01T01:34:20.487Z,51.29
2022-10-01T01:35:20.491Z,51.49
2022-10-01T01:36:20.500Z,51.09
2022-10-01T01:37:20.500Z,51.49
2022-10-01T01:38:20.451Z,53.68
2022-10-01T01:39:20.417Z,52.49
2022-10-01T01:40:20.457Z,51.69
2022-10-01T01:41:20.431Z,51.69
2022-10-01T01:42:20.386Z,51.49
2022-10-01T01:43:20.368Z,51.89
2022-10-01T01:44:20.348Z,51.09
2022-10-01T01:45:20.326Z,51.49
2022-10-01T01:46:20.367Z,52.09
2022-10-01T01:47:20.327Z,51.09
2022-10-01T01:48:20.306Z,51.29
2022-10-01T01:49:34.976Z,51.69
2022-10-01T01:50:20.378Z,51.69
2022-10-01T01:51:20.298Z,50.70
2022-10-01T01:52:20.278Z,51.49
2022-10-01T01:53:20.281Z,51.29
2022-10-01T01:54:20.277Z,51.09
2022-10-01T01:55:20.297Z,50.89
2022-10-01T01:56:20.249Z,50.30
2022-10-01T01:57:20.223Z,50.89
2022-10-01T01:58:20.263Z,51.49
2022-10-01T01:59:20.217Z,50.89
2022-10-01T02:00:20.210Z,50.70
2022-10-01T02:01:20.208Z,51.29
2022-10-01T02:02:20.242Z,51.09
2022-10-01T02:03:20.190Z,50.89
2022-10-01T02:04:20.166Z,51.09
2022-10-01T02:05:20.157Z,50.89
2022-10-01T02:06:20.156Z,50.89
2022-10-01T02:07:20.128Z,51.09
2022-10-01T02:08:20.085Z,51.09
2022-10-01T02:09:20.096Z,51.09
2022-10-01T02:10:20.105Z,51.29
2022-10-01T02:11:20.085Z,51.09
2022-10-01T02:12:20.155Z,51.69
2022-10-01T02:13:20.055Z,51.69
2022-10-01T02:14:20.053Z,51.09
2022-10-01T02:15:20.035Z,51.69
2022-10-01T02:16:20.044Z,51.49
2022-10-01T02:17:20.015Z,51.69
2022-10-01T02:18:20.007Z,51.49
2022-10-01T02:19:19.985Z,53.28
2022-10-01T02:20:20.005Z,51.89
2022-10-01T02:21:19.965Z,50.89
2022-10-01T02:22:19.958Z,51.29
2022-10-01T02:23:19.925Z,51.09
2022-10-01T02:24:19.933Z,51.09
2022-10-01T02:25:19.924Z,51.69
2022-10-01T02:26:19.916Z,51.29
2022-10-01T02:27:19.895Z,51.49
2022-10-01T02:28:20.033Z,51.29
2022-10-01T02:29:19.864Z,51.29
2022-10-01T02:30:19.905Z,49.90
2022-10-01T02:31:19.920Z,50.89
2022-10-01T02:32:19.876Z,50.70
2022-10-01T02:33:19.804Z,51.29
2022-10-01T02:34:20.479Z,51.29
2022-10-01T02:35:19.795Z,50.70
2022-10-01T02:36:19.891Z,51.09
2022-10-01T02:37:19.753Z,51.29
2022-10-01T02:38:19.744Z,51.49
2022-10-01T02:39:19.744Z,50.70
2022-10-01T02:40:19.738Z,51.49
2022-10-01T02:41:19.727Z,51.09
2022-10-01T02:42:19.703Z,51.29
2022-10-01T02:43:19.714Z,53.88
2022-10-01T02:44:19.732Z,51.29
2022-10-01T02:45:19.694Z,50.89
2022-10-01T02:46:19.813Z,50.70
2022-10-01T02:47:19.702Z,51.69
2022-10-01T02:48:19.694Z,51.49
2022-10-01T02:49:19.688Z,51.09
2022-10-01T02:50:19.644Z,51.29
2022-10-01T02:51:19.624Z,50.50
2022-10-01T02:52:19.634Z,50.89
2022-10-01T02:53:19.629Z,51.89
2022-10-01T02:54:19.652Z,50.89
2022-10-01T02:55:19.613Z,51.09
2022-10-01T02:56:19.593Z,50.89
2022-10-01T02:57:19.574Z,51.49
2022-10-01T02:58:19.573Z,51.09
2022-10-01T02:59:19.554Z,51.49
2022-10-01T03:00:19.533Z,51.09
2022-10-01T03:01:19.555Z,51.09
2022-10-01T03:02:19.655Z,51.29
2022-10-01T03:03:19.536Z,51.29
2022-10-01T03:04:19.523Z,51.29
2022-10-01T03:05:19.518Z,51.09
2022-10-01T03:06:19.498Z,50.70
2022-10-01T03:07:19.507Z,51.29
2022-10-01T03:08:19.443Z,51.29
2022-10-01T03:09:19.444Z,50.89
2022-10-01T03:10:19.448Z,50.89
2022-10-01T03:11:19.493Z,51.29
2022-10-01T03:12:19.403Z,51.29
2022-10-01T03:13:19.412Z,50.50
2022-10-01T03:14:19.412Z,51.49
2022-10-01T03:15:19.461Z,51.29
2022-10-01T03:16:19.388Z,52.29
2022-10-01T03:17:19.383Z,50.70
2022-10-01T03:18:19.362Z,51.49
2022-10-01T03:19:19.389Z,51.89
2022-10-01T03:20:19.363Z,51.69
2022-10-01T03:21:19.378Z,51.49
2022-10-01T03:22:19.313Z,51.49
2022-10-01T03:23:19.291Z,50.50
2022-10-01T03:24:19.281Z,51.49
2022-10-01T03:25:19.311Z,51.09
2022-10-01T03:26:19.282Z,51.69
2022-10-01T03:27:19.262Z,51.49
2022-10-01T03:28:19.298Z,51.89
2022-10-01T03:29:19.270Z,50.89
2022-10-01T03:30:19.208Z,50.89
2022-10-01T03:31:19.255Z,51.49
2022-10-01T03:32:19.245Z,51.09
2022-10-01T03:33:19.190Z,51.49
2022-10-01T03:34:19.241Z,51.69
2022-10-01T03:35:19.201Z,51.49
2022-10-01T03:36:19.196Z,51.09
2022-10-01T03:37:19.161Z,51.29
2022-10-01T03:38:19.140Z,51.49
2022-10-01T03:39:19.116Z,51.69
2022-10-01T03:40:19.151Z,50.89
2022-10-01T03:41:19.100Z,50.70
2022-10-01T03:42:19.174Z,51.69
2022-10-01T03:43:19.120Z,52.09
2022-10-01T03:44:19.134Z,51.69
2022-10-01T03:45:19.070Z,50.70
2022-10-01T03:46:19.031Z,52.29
2022-10-01T03:47:19.094Z,51.29
2022-10-01T03:48:19.029Z,51.89
2022-10-01T03:49:18.990Z,51.49
2022-10-01T03:50:19.000Z,51.49
2022-10-01T03:51:19.944Z,51.29
2022-10-01T03:52:18.962Z,50.89
2022-10-01T03:53:18.970Z,53.48
2022-10-01T03:54:18.950Z,51.69
2022-10-01T03:55:18.981Z,51.29
2022-10-01T03:56:19.031Z,51.29
2022-10-01T03:57:18.950Z,50.89
2022-10-01T03:58:18.936Z,51.49
2022-10-01T03:59:18.920Z,52.09
2022-10-01T04:00:18.941Z,51.29
2022-10-01T04:01:18.990Z,51.69
2022-10-01T04:02:19.037Z,51.49
2022-10-01T04:03:18.892Z,51.89
2022-10-01T04:04:18.849Z,51.89
2022-10-01T04:05:18.869Z,50.70
2022-10-01T04:06:18.879Z,51.89
2022-10-01T04:07:18.829Z,51.69
2022-10-01T04:08:23.453Z,51.09
2022-10-01T04:09:19.808Z,51.69
2022-10-01T04:10:18.829Z,50.89
2022-10-01T04:11:18.789Z,51.89
2022-10-01T04:12:18.759Z,50.89
2022-10-01T04:13:18.758Z,51.29
2022-10-01T04:14:18.859Z,51.29
2022-10-01T04:15:18.738Z,51.69
2022-10-01T04:16:18.801Z,51.89
2022-10-01T04:17:18.750Z,51.49
2022-10-01T04:18:18.719Z,52.88
2022-10-01T04:19:18.688Z,51.69
2022-10-01T04:20:18.691Z,51.89
2022-10-01T04:21:18.709Z,51.49
2022-10-01T04:22:18.679Z,49.30
2022-10-01T04:23:18.638Z,51.29
2022-10-01T04:24:18.661Z,53.48
2022-10-01T04:25:18.689Z,51.69
2022-10-01T04:26:18.629Z,51.89
2022-10-01T04:27:18.640Z,51.09
2022-10-01T04:28:18.666Z,51.09
2022-10-01T04:29:18.608Z,51.69
2022-10-01T04:30:18.562Z,52.09
2022-10-01T04:31:18.619Z,51.69
2022-10-01T04:32:18.561Z,51.69
2022-10-01T04:33:18.595Z,50.70
2022-10-01T04:34:18.521Z,51.49
2022-10-01T04:35:18.528Z,51.29
2022-10-01T04:36:18.556Z,51.89
2022-10-01T04:37:18.536Z,50.89
2022-10-01T04:38:18.484Z,51.49
2022-10-01T04:39:18.488Z,51.89
2022-10-01T04:40:18.507Z,50.89
2022-10-01T04:41:18.456Z,51.49
2022-10-01T04:42:18.447Z,51.09
2022-10-01T04:43:18.428Z,51.69
2022-10-01T04:44:18.452Z,51.29
2022-10-01T04:45:18.431Z,51.49
2022-10-01T04:46:18.450Z,51.69
2022-10-01T04:47:18.377Z,52.49
2022-10-01T04:48:18.372Z,51.69
2022-10-01T04:49:18.390Z,51.49
2022-10-01T04:50:18.382Z,51.89
2022-10-01T04:51:18.386Z,51.29
2022-10-01T04:52:18.340Z,51.29
2022-10-01T04:53:18.309Z,51.69
2022-10-01T04:54:18.305Z,51.69
2022-10-01T04:55:18.341Z,52.09
2022-10-01T04:56:18.327Z,50.70
2022-10-01T04:57:18.287Z,51.29
2022-10-01T04:58:18.277Z,51.69
2022-10-01T04:59:18.313Z,51.69
2022-10-01T05:00:18.257Z,51.49
2022-10-01T05:01:18.316Z,52.09
2022-10-01T05:02:18.279Z,54.08
2022-10-01T05:03:18.239Z,51.09
2022-10-01T05:04:18.219Z,51.69
2022-10-01T05:05:18.259Z,51.69
2022-10-01T05:06:18.204Z,51.69
2022-10-01T05:07:18.186Z,51.69
2022-10-01T05:08:18.141Z,51.49
2022-10-01T05:09:18.128Z,50.89
2022-10-01T05:10:18.116Z,51.49
2022-10-01T05:11:18.108Z,52.09
2022-10-01T05:12:22.355Z,52.68
2022-10-01T05:13:19.069Z,52.09
2022-10-01T05:14:18.095Z,52.09
2022-10-01T05:15:18.108Z,50.70
2022-10-01T05:16:18.109Z,51.69
2022-10-01T05:17:18.102Z,51.29
2022-10-01T05:18:18.065Z,51.49
2022-10-01T05:19:18.037Z,51.69
2022-10-01T05:20:18.043Z,51.89
2022-10-01T05:21:19.035Z,51.69
2022-10-01T05:22:18.026Z,48.11
2022-10-01T05:23:18.106Z,50.70
2022-10-01T05:24:18.005Z,51.49
2022-10-01T05:25:18.003Z,51.29
2022-10-01T05:26:18.049Z,52.49
2022-10-01T05:27:17.985Z,50.89
2022-10-01T05:28:22.192Z,51.89
2022-10-01T05:29:17.915Z,51.69
2022-10-01T05:30:17.924Z,51.89
2022-10-01T05:31:17.987Z,51.69
2022-10-01T05:32:17.925Z,48.31
2022-10-01T05:33:18.134Z,52.29
2022-10-01T05:34:17.875Z,52.29
2022-10-01T05:35:17.898Z,51.69
2022-10-01T05:36:17.864Z,51.49
2022-10-01T05:37:17.863Z,52.49
2022-10-01T05:38:17.795Z,52.29
2022-10-01T05:39:17.783Z,52.09
2022-10-01T05:40:17.784Z,52.09
2022-10-01T05:41:17.873Z,51.49
2022-10-01T05:42:17.810Z,51.69
2022-10-01T05:43:17.755Z,51.69
2022-10-01T05:44:17.754Z,51.89
2022-10-01T05:45:17.744Z,51.49
2022-10-01T05:46:17.767Z,50.89
2022-10-01T05:47:17.727Z,52.29
2022-10-01T05:48:17.734Z,51.89
2022-10-01T05:49:17.717Z,50.89
2022-10-01T05:50:17.666Z,52.49
2022-10-01T05:51:17.688Z,51.69
2022-10-01T05:52:17.664Z,51.69
2022-10-01T05:53:17.666Z,51.69
2022-10-01T05:54:17.714Z,52.29
2022-10-01T05:55:17.680Z,52.09
2022-10-01T05:56:17.635Z,51.69
2022-10-01T05:57:17.633Z,52.09
2022-10-01T05:58:17.607Z,52.49
2022-10-01T05:59:17.603Z,51.09
2022-10-01T06:00:17.583Z,51.49
2022-10-01T06:01:17.624Z,51.49
2022-10-01T06:02:17.669Z,52.09
2022-10-01T06:03:17.633Z,51.69
2022-10-01T06:04:17.564Z,51.49
2022-10-01T06:05:17.528Z,52.09
2022-10-01T06:06:17.502Z,51.89
2022-10-01T06:07:17.631Z,52.49
2022-10-01T06:08:17.463Z,51.69
2022-10-01T06:09:17.452Z,51.89
2022-10-01T06:10:17.507Z,51.69
2022-10-01T06:11:17.476Z,52.29
2022-10-01T06:12:19.794Z,51.89
2022-10-01T06:13:17.465Z,54.47
2022-10-01T06:14:17.493Z,52.09
2022-10-01T06:15:17.457Z,51.69
2022-10-01T06:16:17.500Z,51.49
2022-10-01T06:17:17.476Z,53.08
2022-10-01T06:18:17.416Z,51.29
2022-10-01T06:19:17.390Z,51.49
2022-10-01T06:20:17.385Z,51.49
2022-10-01T06:21:17.366Z,52.49
2022-10-01T06:22:17.377Z,51.49
2022-10-01T06:23:17.322Z,52.68
2022-10-01T06:24:17.313Z,51.69
2022-10-01T06:25:17.332Z,51.69
2022-10-01T06:26:17.319Z,52.29
2022-10-01T06:27:17.322Z,51.69
2022-10-01T06:28:17.374Z,53.08
2022-10-01T06:29:17.299Z,52.49
2022-10-01T06:30:17.271Z,52.88
2022-10-01T06:31:17.306Z,51.89
2022-10-01T06:32:17.254Z,52.68
2022-10-01T06:33:17.699Z,52.68
2022-10-01T06:34:17.180Z,51.49
2022-10-01T06:35:17.182Z,51.89
2022-10-01T06:36:17.249Z,52.68
2022-10-01T06:37:17.161Z,53.28
2022-10-01T06:38:17.186Z,53.68
2022-10-01T06:39:17.151Z,52.49
2022-10-01T06:40:17.213Z,53.48
2022-10-01T06:41:17.152Z,52.88
2022-10-01T06:42:17.131Z,52.88
2022-10-01T06:43:17.162Z,52.88
2022-10-01T06:44:17.131Z,52.29
2022-10-01T06:45:17.101Z,53.08
2022-10-01T06:46:17.189Z,51.89
2022-10-01T06:47:17.072Z,52.88
2022-10-01T06:48:17.159Z,52.49
2022-10-01T06:49:17.025Z,51.69
2022-10-01T06:50:17.027Z,52.49
2022-10-01T06:51:17.053Z,51.89
2022-10-01T06:52:17.024Z,51.89
2022-10-01T06:53:17.051Z,52.09
2022-10-01T06:54:16.980Z,51.89
2022-10-01T06:55:17.050Z,51.49
2022-10-01T06:56:17.025Z,52.49
2022-10-01T06:57:16.941Z,52.09
2022-10-01T06:58:16.970Z,52.29
2022-10-01T06:59:16.919Z,54.08
2022-10-01T07:00:16.910Z,52.29
2022-10-01T07:01:16.929Z,51.89
2022-10-01T07:02:16.958Z,53.08
2022-10-01T07:03:16.879Z,50.89
2022-10-01T07:04:16.860Z,51.89
2022-10-01T07:05:16.850Z,52.49
2022-10-01T07:06:16.834Z,51.69
2022-10-01T07:07:16.839Z,51.69
2022-10-01T07:08:16.877Z,52.29
2022-10-01T07:09:16.880Z,52.49
2022-10-01T07:10:16.821Z,51.49
2022-10-01T07:11:16.837Z,51.29
2022-10-01T07:12:16.803Z,52.88
2022-10-01T07:13:16.835Z,51.69
2022-10-01T07:14:16.773Z,52.49
2022-10-01T07:15:16.779Z,51.49
2022-10-01T07:16:16.799Z,52.68
2022-10-01T07:17:16.731Z,51.09
2022-10-01T07:18:16.801Z,52.68
2022-10-01T07:19:16.727Z,52.68
2022-10-01T07:20:16.680Z,51.69
2022-10-01T07:21:16.667Z,51.49
2022-10-01T07:22:16.820Z,52.29
2022-10-01T07:23:16.705Z,52.09
2022-10-01T07:24:16.689Z,53.08
2022-10-01T07:25:16.618Z,51.89
2022-10-01T07:26:16.628Z,52.29
2022-10-01T07:27:16.610Z,51.69
2022-10-01T07:28:17.034Z,52.88
2022-10-01T07:29:16.586Z,52.09
2022-10-01T07:30:16.848Z,52.09
2022-10-01T07:31:16.641Z,52.49
2022-10-01T07:32:16.600Z,52.09
2022-10-01T07:33:16.554Z,52.09
2022-10-01T07:34:16.528Z,52.49
2022-10-01T07:35:16.520Z,52.29
2022-10-01T07:36:16.498Z,52.09
2022-10-01T07:37:16.499Z,52.68
2022-10-01T07:38:16.919Z,51.69
2022-10-01T07:39:16.520Z,52.68
2022-10-01T07:40:16.523Z,52.88
2022-10-01T07:41:16.497Z,52.29
2022-10-01T07:42:16.532Z,52.09
2022-10-01T07:43:16.503Z,52.68
2022-10-01T07:44:16.449Z,52.09
2022-10-01T07:45:16.468Z,52.68
2022-10-01T07:46:16.461Z,52.29
2022-10-01T07:47:16.399Z,52.29
2022-10-01T07:48:16.418Z,52.29
2022-10-01T07:49:16.376Z,52.29
2022-10-01T07:50:16.367Z,52.68
2022-10-01T07:51:16.357Z,52.29
2022-10-01T07:52:16.357Z,52.68
2022-10-01T07:53:16.378Z,52.68
2022-10-01T07:54:16.368Z,53.28
2022-10-01T07:55:16.366Z,52.09
2022-10-01T07:56:16.347Z,53.08
2022-10-01T07:57:16.310Z,52.49
2022-10-01T07:58:16.367Z,53.48
2022-10-01T07:59:16.310Z,51.89
2022-10-01T08:00:16.327Z,52.68
2022-10-01T08:01:16.303Z,53.08
2022-10-01T08:02:16.324Z,52.29
2022-10-01T08:03:16.278Z,52.68
2022-10-01T08:04:16.247Z,52.29
2022-10-01T08:05:16.256Z,52.29
2022-10-01T08:06:16.216Z,53.08
2022-10-01T08:07:16.188Z,52.88
2022-10-01T08:08:16.236Z,52.68
2022-10-01T08:09:16.188Z,52.09
2022-10-01T08:10:16.170Z,53.28
2022-10-01T08:11:16.197Z,52.68
2022-10-01T08:12:16.118Z,52.68
2022-10-01T08:13:16.115Z,52.88
2022-10-01T08:14:16.106Z,52.49
2022-10-01T08:15:16.356Z,52.88
2022-10-01T08:16:16.141Z,51.89
2022-10-01T08:17:16.058Z,51.69
2022-10-01T08:18:16.119Z,53.28
2022-10-01T08:19:16.046Z,52.49
2022-10-01T08:20:16.049Z,52.88
2022-10-01T08:21:16.043Z,52.88
2022-10-01T08:22:16.029Z,52.49
2022-10-01T08:23:16.058Z,52.68
2022-10-01T08:24:16.045Z,52.88
2022-10-01T08:25:16.017Z,52.29
2022-10-01T08:26:16.019Z,52.49
2022-10-01T08:27:16.005Z,52.09
2022-10-01T08:28:16.052Z,52.49
2022-10-01T08:29:17.140Z,53.28
2022-10-01T08:30:15.957Z,52.49
2022-10-01T08:31:16.150Z,52.29
2022-10-01T08:32:15.937Z,52.49
2022-10-01T08:33:15.979Z,52.68
2022-10-01T08:34:15.916Z,52.68
2022-10-01T08:35:15.925Z,51.49
2022-10-01T08:36:15.901Z,52.49
2022-10-01T08:37:15.912Z,52.09
2022-10-01T08:38:15.861Z,53.28
2022-10-01T08:39:15.886Z,52.68
2022-10-01T08:40:15.825Z,52.29
2022-10-01T08:41:18.291Z,52.49
2022-10-01T08:42:15.793Z,52.29
2022-10-01T08:43:15.787Z,52.68
2022-10-01T08:44:15.787Z,52.88
2022-10-01T08:45:15.756Z,53.28
2022-10-01T08:46:15.765Z,52.49
2022-10-01T08:47:15.745Z,52.88
2022-10-01T08:48:15.747Z,53.48
2022-10-01T08:49:15.734Z,52.88
2022-10-01T08:50:15.698Z,52.49
2022-10-01T08:51:15.747Z,52.68
2022-10-01T08:52:16.505Z,53.08
2022-10-01T08:53:15.675Z,53.68
2022-10-01T08:54:15.690Z,53.48
2022-10-01T08:55:15.637Z,53.28
2022-10-01T08:56:15.662Z,53.68
2022-10-01T08:57:15.656Z,53.08
2022-10-01T08:58:15.648Z,53.28
2022-10-01T08:59:15.606Z,53.48
2022-10-01T09:00:15.644Z,53.08
2022-10-01T09:01:15.656Z,52.68
2022-10-01T09:02:15.886Z,52.88
2022-10-01T09:03:15.691Z,54.08
2022-10-01T09:04:15.586Z,53.68
2022-10-01T09:05:15.545Z,53.48
2022-10-01T09:06:15.545Z,53.48
2022-10-01T09:07:15.556Z,52.29
2022-10-01T09:08:15.547Z,52.09
2022-10-01T09:09:15.535Z,53.28
2022-10-01T09:10:15.533Z,52.49
2022-10-01T09:11:15.607Z,53.28
2022-10-01T09:12:15.535Z,52.68
2022-10-01T09:13:15.475Z,54.67
2022-10-01T09:14:15.463Z,53.48
2022-10-01T09:15:15.545Z,53.28
2022-10-01T09:16:15.449Z,53.28
2022-10-01T09:17:15.428Z,53.28
2022-10-01T09:18:15.419Z,52.88
2022-10-01T09:19:15.410Z,53.48
2022-10-01T09:20:15.384Z,52.68
2022-10-01T09:21:15.356Z,52.68
2022-10-01T09:22:15.366Z,53.68
2022-10-01T09:23:15.417Z,53.48
2022-10-01T09:24:15.393Z,52.88
2022-10-01T09:25:15.366Z,52.68
2022-10-01T09:26:15.356Z,53.28
2022-10-01T09:27:15.335Z,53.08
2022-10-01T09:28:15.476Z,52.88
2022-10-01T09:29:15.315Z,53.08
2022-10-01T09:30:15.316Z,54.27
2022-10-01T09:31:15.295Z,53.48
2022-10-01T09:32:15.277Z,52.88
2022-10-01T09:33:15.266Z,53.08
2022-10-01T09:34:15.285Z,52.88
2022-10-01T09:35:15.228Z,53.68
2022-10-01T09:36:15.205Z,53.48
2022-10-01T09:37:15.207Z,53.48
2022-10-01T09:38:15.235Z,52.68
2022-10-01T09:39:15.221Z,53.28
2022-10-01T09:40:15.205Z,52.29
2022-10-01T09:41:15.218Z,53.28
2022-10-01T09:42:15.187Z,52.68
2022-10-01T09:43:15.176Z,53.48
2022-10-01T09:44:18.543Z,52.88
2022-10-01T09:45:15.127Z,53.68
2022-10-01T09:46:15.219Z,53.28
2022-10-01T09:47:15.118Z,52.09
2022-10-01T09:48:15.119Z,53.48
2022-10-01T09:49:15.066Z,53.48
2022-10-01T09:50:15.052Z,53.08
2022-10-01T09:51:15.046Z,52.88
2022-10-01T09:52:15.047Z,54.87
2022-10-01T09:53:15.045Z,53.28
2022-10-01T09:54:15.066Z,52.49
2022-10-01T09:55:15.025Z,53.68
2022-10-01T09:56:15.005Z,54.08
2022-10-01T09:57:15.013Z,53.28
2022-10-01T09:58:14.978Z,53.88
2022-10-01T09:59:14.985Z,53.08
2022-10-01T10:00:15.001Z,53.08
2022-10-01T10:01:14.955Z,53.68
2022-10-01T10:02:15.037Z,53.68
2022-10-01T10:03:15.048Z,53.68
2022-10-01T10:04:19.847Z,53.28
2022-10-01T10:05:15.925Z,53.88
2022-10-01T10:06:14.924Z,53.48
2022-10-01T10:07:14.900Z,53.28
2022-10-01T10:08:14.879Z,52.88
2022-10-01T10:09:14.850Z,54.27
2022-10-01T10:10:14.856Z,53.48
2022-10-01T10:11:14.923Z,52.49
2022-10-01T10:12:14.845Z,53.28
2022-10-01T10:13:14.797Z,53.48
2022-10-01T10:14:14.808Z,53.28
2022-10-01T10:15:14.816Z,53.88
2022-10-01T10:16:14.800Z,53.08
2022-10-01T10:17:14.762Z,53.28
2022-10-01T10:18:14.767Z,53.48
2022-10-01T10:19:14.806Z,53.88
2022-10-01T10:20:14.780Z,53.08
2022-10-01T10:21:14.744Z,53.88
2022-10-01T10:22:14.789Z,53.28
2022-10-01T10:23:14.757Z,54.27
2022-10-01T10:24:14.712Z,53.28
2022-10-01T10:25:14.668Z,55.07
2022-10-01T10:26:14.691Z,55.07
2022-10-01T10:27:14.877Z,52.68
2022-10-01T10:28:14.719Z,53.68
2022-10-01T10:29:14.658Z,53.48
2022-10-01T10:30:14.819Z,53.68
2022-10-01T10:31:14.738Z,53.28
2022-10-01T10:32:14.629Z,53.08
2022-10-01T10:33:14.611Z,52.88
2022-10-01T10:34:14.634Z,52.88
2022-10-01T10:35:14.618Z,54.67
2022-10-01T10:36:14.592Z,53.68
2022-10-01T10:37:14.705Z,53.88
2022-10-01T10:38:14.563Z,53.48
2022-10-01T10:39:14.546Z,53.48
2022-10-01T10:40:14.551Z,54.67
2022-10-01T10:41:14.525Z,54.08
2022-10-01T10:42:14.515Z,52.88
2022-10-01T10:43:19.732Z,53.68
2022-10-01T10:44:14.549Z,53.68
2022-10-01T10:45:14.491Z,53.48
2022-10-01T10:46:14.552Z,54.47
2022-10-01T10:47:14.471Z,53.48
2022-10-01T10:48:14.487Z,53.48
2022-10-01T10:49:14.468Z,54.08
2022-10-01T10:50:14.521Z,54.27
2022-10-01T10:51:14.429Z,54.27
2022-10-01T10:52:14.447Z,54.08
2022-10-01T10:53:14.408Z,54.47
2022-10-01T10:54:14.420Z,54.47
2022-10-01T10:55:14.920Z,54.87
2022-10-01T10:56:14.339Z,54.27
2022-10-01T10:57:14.330Z,54.67
2022-10-01T10:58:14.310Z,54.47
2022-10-01T10:59:14.516Z,55.27
2022-10-01T11:00:14.374Z,54.67
2022-10-01T11:01:14.357Z,54.47
2022-10-01T11:02:14.307Z,53.68
2022-10-01T11:03:14.328Z,54.27
2022-10-01T11:04:14.290Z,54.27
2022-10-01T11:05:14.280Z,54.27
2022-10-01T11:06:14.260Z,53.88
2022-10-01T11:07:14.315Z,54.08
2022-10-01T11:08:17.687Z,54.47
2022-10-01T11:09:14.239Z,54.47
2022-10-01T11:10:14.239Z,53.08
2022-10-01T11:11:14.261Z,53.88
2022-10-01T11:12:14.188Z,53.88
2022-10-01T11:13:14.251Z,53.88
2022-10-01T11:14:14.241Z,54.67
2022-10-01T11:15:14.193Z,53.88
2022-10-01T11:16:14.189Z,54.08
2022-10-01T11:17:14.172Z,53.28
2022-10-01T11:18:14.141Z,55.07
2022-10-01T11:19:14.151Z,54.08
2022-10-01T11:20:18.580Z,54.27
2022-10-01T11:21:15.078Z,54.67
2022-10-01T11:22:14.082Z,53.28
2022-10-01T11:23:14.072Z,55.27
2022-10-01T11:24:14.052Z,53.48
2022-10-01T11:25:14.048Z,54.08
2022-10-01T11:26:14.052Z,53.68
2022-10-01T11:27:14.001Z,53.28
2022-10-01T11:28:14.098Z,54.27
2022-10-01T11:29:14.022Z,52.68
2022-10-01T11:30:14.022Z,53.88
2022-10-01T11:31:14.048Z,53.68
2022-10-01T11:32:13.994Z,53.88
2022-10-01T11:33:13.982Z,54.27
2022-10-01T11:34:13.984Z,53.88
2022-10-01T11:35:14.013Z,53.68
2022-10-01T11:36:13.928Z,53.88
2022-10-01T11:37:13.963Z,54.08
2022-10-01T11:38:13.920Z,53.88
2022-10-01T11:39:13.947Z,53.68
2022-10-01T11:40:13.891Z,53.68
2022-10-01T11:41:13.920Z,54.67
2022-10-01T11:42:13.899Z,53.88
2022-10-01T11:43:13.865Z,54.67
2022-10-01T11:44:13.921Z,54.08
2022-10-01T11:45:13.875Z,54.08
2022-10-01T11:46:13.917Z,53.88
2022-10-01T11:47:13.812Z,54.27
2022-10-01T11:48:13.815Z,53.88
2022-10-01T11:49:13.875Z,54.08
2022-10-01T11:50:13.796Z,55.07
2022-10-01T11:51:13.764Z,54.27
2022-10-01T11:52:13.760Z,53.28
2022-10-01T11:53:13.743Z,54.87
2022-10-01T11:54:13.745Z,54.27
2022-10-01T11:55:13.803Z,54.08
2022-10-01T11:56:14.025Z,54.87
2022-10-01T11:57:13.674Z,54.27
2022-10-01T11:58:13.685Z,53.88
2022-10-01T11:59:13.708Z,54.08
2022-10-01T12:00:13.676Z,54.08
2022-10-01T12:01:13.667Z,54.47
2022-10-01T12:02:13.729Z,53.88
2022-10-01T12:03:13.655Z,53.88
2022-10-01T12:04:13.683Z,53.48
2022-10-01T12:05:13.681Z,53.08
2022-10-01T12:06:13.615Z,53.88
2022-10-01T12:07:13.595Z,53.88
2022-10-01T12:08:13.587Z,53.88
2022-10-01T12:09:13.586Z,53.68
2022-10-01T12:10:13.601Z,53.68
2022-10-01T12:11:13.568Z,54.67
2022-10-01T12:12:13.546Z,53.88
2022-10-01T12:13:13.504Z,54.67
2022-10-01T12:14:13.576Z,54.27
2022-10-01T12:15:13.506Z,53.48
2022-10-01T12:16:13.618Z,54.08
2022-10-01T12:17:13.477Z,54.27
2022-10-01T12:18:13.532Z,54.08
2022-10-01T12:19:13.490Z,54.67
2022-10-01T12:20:13.514Z,55.47
2022-10-01T12:21:13.449Z,55.27
2022-10-01T12:22:13.623Z,54.67
2022-10-01T12:23:13.428Z,54.47
2022-10-01T12:24:13.467Z,54.08
2022-10-01T12:25:13.461Z,55.67
2022-10-01T12:26:13.470Z,54.67
2022-10-01T12:27:13.379Z,54.67
2022-10-01T12:28:13.444Z,55.07
2022-10-01T12:29:13.369Z,55.07
2022-10-01T12:30:13.352Z,54.27
2022-10-01T12:31:13.369Z,54.67
2022-10-01T12:32:13.345Z,54.87
2022-10-01T12:33:13.346Z,53.48
2022-10-01T12:34:13.352Z,54.87
2022-10-01T12:35:13.320Z,54.08
2022-10-01T12:36:13.322Z,54.67
2022-10-01T12:37:13.290Z,54.67
2022-10-01T12:38:13.272Z,55.27
2022-10-01T12:39:13.252Z,54.08
2022-10-01T12:40:13.293Z,54.47
2022-10-01T12:41:13.233Z,54.87
2022-10-01T12:42:13.232Z,54.67
2022-10-01T12:43:13.209Z,54.08
2022-10-01T12:44:13.220Z,54.08
2022-10-01T12:45:13.232Z,54.67
2022-10-01T12:46:13.300Z,55.67
2022-10-01T12:47:13.206Z,54.87
2022-10-01T12:48:13.198Z,54.67
2022-10-01T12:49:13.156Z,55.47
2022-10-01T12:50:13.164Z,54.47
2022-10-01T12:51:13.143Z,53.68
2022-10-01T12:52:13.134Z,54.27